sensor_id;sensor_type;location;lat;lon;timestamp;pressure;altitude;pressure_sealevel;temperature;humidity
35910;BME280;22004;49.120;-0.200;2023-03-21T00:00:57;101434.28;;;11.52;73.06
35910;BME280;22004;49.120;-0.200;2023-03-21T00:03:23;101439.31;;;11.55;72.24
35910;BME280;22004;49.120;-0.200;2023-03-21T00:05:50;101433.63;;;11.26;73.96
35910;BME280;22004;49.120;-0.200;2023-03-21T00:08:21;101427.41;;;11.17;73.65
35910;BME280;22004;49.120;-0.200;2023-03-21T00:10:54;101429.91;;;10.86;74.98
35910;BME280;22004;49.120;-0.200;2023-03-21T00:13:20;101424.38;;;10.79;75.38
35910;BME280;22004;49.120;-0.200;2023-03-21T00:15:45;101419.50;;;11.07;74.17
35910;BME280;22004;49.120;-0.200;2023-03-21T00:18:22;101410.94;;;10.96;74.41
35910;BME280;22004;49.120;-0.200;2023-03-21T00:20:56;101411.81;;;11.04;74.58
35910;BME280;22004;49.120;-0.200;2023-03-21T00:23:23;101404.75;;;11.20;73.44
35910;BME280;22004;49.120;-0.200;2023-03-21T00:25:49;101392.63;;;10.75;75.19
35910;BME280;22004;49.120;-0.200;2023-03-21T00:28:14;101395.31;;;11.40;72.95
35910;BME280;22004;49.120;-0.200;2023-03-21T00:30:39;101399.53;;;11.34;73.04
35910;BME280;22004;49.120;-0.200;2023-03-21T00:33:05;101397.19;;;11.15;74.12
35910;BME280;22004;49.120;-0.200;2023-03-21T00:35:31;101388.94;;;11.41;72.96
35910;BME280;22004;49.120;-0.200;2023-03-21T00:37:56;101389.78;;;11.25;73.68
35910;BME280;22004;49.120;-0.200;2023-03-21T00:40:21;101379.56;;;11.04;74.61
35910;BME280;22004;49.120;-0.200;2023-03-21T00:42:47;101389.97;;;10.99;73.45
35910;BME280;22004;49.120;-0.200;2023-03-21T00:45:12;101399.19;;;11.13;72.59
35910;BME280;22004;49.120;-0.200;2023-03-21T00:47:37;101393.66;;;10.90;74.36
35910;BME280;22004;49.120;-0.200;2023-03-21T00:50:03;101392.47;;;11.17;73.21
35910;BME280;22004;49.120;-0.200;2023-03-21T00:52:29;101393.66;;;10.90;74.79
35910;BME280;22004;49.120;-0.200;2023-03-21T00:54:54;101393.47;;;11.16;73.89
35910;BME280;22004;49.120;-0.200;2023-03-21T00:57:20;101387.09;;;10.93;74.28
35910;BME280;22004;49.120;-0.200;2023-03-21T00:59:45;101390.13;;;11.14;72.51
35910;BME280;22004;49.120;-0.200;2023-03-21T01:02:10;101395.00;;;11.10;73.67
35910;BME280;22004;49.120;-0.200;2023-03-21T01:04:39;101392.25;;;10.61;74.03
35910;BME280;22004;49.120;-0.200;2023-03-21T01:07:04;101389.94;;;11.24;73.35
35910;BME280;22004;49.120;-0.200;2023-03-21T01:09:30;101389.44;;;11.04;73.78
35910;BME280;22004;49.120;-0.200;2023-03-21T01:11:55;101384.75;;;11.06;72.55
35910;BME280;22004;49.120;-0.200;2023-03-21T01:14:21;101374.50;;;11.18;73.09
35910;BME280;22004;49.120;-0.200;2023-03-21T01:16:49;101380.84;;;11.33;72.79
35910;BME280;22004;49.120;-0.200;2023-03-21T01:19:17;101369.97;;;11.34;72.79
35910;BME280;22004;49.120;-0.200;2023-03-21T01:21:42;101368.53;;;10.24;73.92
35910;BME280;22004;49.120;-0.200;2023-03-21T01:24:08;101366.94;;;10.72;71.64
35910;BME280;22004;49.120;-0.200;2023-03-21T01:26:34;101375.50;;;10.84;73.72
35910;BME280;22004;49.120;-0.200;2023-03-21T01:29:02;101372.00;;;11.00;71.71
35910;BME280;22004;49.120;-0.200;2023-03-21T01:31:28;101372.84;;;11.00;72.93
35910;BME280;22004;49.120;-0.200;2023-03-21T01:33:53;101366.09;;;11.21;72.75
35910;BME280;22004;49.120;-0.200;2023-03-21T01:36:21;101357.22;;;11.20;72.51
35910;BME280;22004;49.120;-0.200;2023-03-21T01:38:47;101355.00;;;11.24;72.42
35910;BME280;22004;49.120;-0.200;2023-03-21T01:43:48;101346.59;;;11.27;72.67
35910;BME280;22004;49.120;-0.200;2023-03-21T01:46:27;101331.16;;;11.21;72.37
35910;BME280;22004;49.120;-0.200;2023-03-21T01:48:58;101331.50;;;11.18;72.76
35910;BME280;22004;49.120;-0.200;2023-03-21T01:51:25;101324.44;;;11.08;72.27
35910;BME280;22004;49.120;-0.200;2023-03-21T01:53:51;101338.38;;;11.12;73.03
35910;BME280;22004;49.120;-0.200;2023-03-21T01:56:27;101322.09;;;11.22;72.37
35910;BME280;22004;49.120;-0.200;2023-03-21T01:58:58;101322.09;;;11.13;72.69
35910;BME280;22004;49.120;-0.200;2023-03-21T02:01:27;101326.28;;;11.08;72.72
35910;BME280;22004;49.120;-0.200;2023-03-21T02:03:52;101320.78;;;10.85;72.04
35910;BME280;22004;49.120;-0.200;2023-03-21T02:06:35;101321.28;;;11.05;72.54
35910;BME280;22004;49.120;-0.200;2023-03-21T02:09:06;101314.22;;;11.12;72.16
35910;BME280;22004;49.120;-0.200;2023-03-21T02:11:33;101320.91;;;11.08;72.41
35910;BME280;22004;49.120;-0.200;2023-03-21T02:13:59;101303.47;;;10.87;71.27
35910;BME280;22004;49.120;-0.200;2023-03-21T02:16:41;101291.06;;;10.78;73.13
35910;BME280;22004;49.120;-0.200;2023-03-21T02:22:24;101303.47;;;11.04;72.69
35910;BME280;22004;49.120;-0.200;2023-03-21T02:27:47;101301.81;;;10.95;73.13
35910;BME280;22004;49.120;-0.200;2023-03-21T02:35:35;101305.00;;;10.90;73.06
35910;BME280;22004;49.120;-0.200;2023-03-21T02:38:07;101307.72;;;10.07;74.65
35910;BME280;22004;49.120;-0.200;2023-03-21T02:40:53;101299.88;;;10.22;74.11
35910;BME280;22004;49.120;-0.200;2023-03-21T02:43:43;101304.66;;;10.52;72.44
35910;BME280;22004;49.120;-0.200;2023-03-21T02:48:54;101302.28;;;10.41;71.57
35910;BME280;22004;49.120;-0.200;2023-03-21T02:51:22;101294.84;;;10.10;72.25
35910;BME280;22004;49.120;-0.200;2023-03-21T02:53:55;101286.13;;;10.17;72.54
35910;BME280;22004;49.120;-0.200;2023-03-21T02:56:23;101286.53;;;10.46;74.11
35910;BME280;22004;49.120;-0.200;2023-03-21T02:58:50;101294.41;;;10.88;71.69
35910;BME280;22004;49.120;-0.200;2023-03-21T03:01:16;101291.75;;;10.80;71.96
35910;BME280;22004;49.120;-0.200;2023-03-21T03:03:41;101294.44;;;10.80;72.79
35910;BME280;22004;49.120;-0.200;2023-03-21T03:06:16;101272.75;;;10.33;73.85
35910;BME280;22004;49.120;-0.200;2023-03-21T03:11:27;101271.41;;;10.37;73.47
35910;BME280;22004;49.120;-0.200;2023-03-21T03:19:24;101285.84;;;10.69;72.83
35910;BME280;22004;49.120;-0.200;2023-03-21T03:22:06;101284.28;;;10.17;74.82
35910;BME280;22004;49.120;-0.200;2023-03-21T03:25:02;101273.94;;;10.63;73.40
35910;BME280;22004;49.120;-0.200;2023-03-21T03:27:28;101275.63;;;10.64;73.63
35910;BME280;22004;49.120;-0.200;2023-03-21T03:29:58;101282.09;;;11.19;72.27
35910;BME280;22004;49.120;-0.200;2023-03-21T03:32:29;101272.03;;;11.12;72.36
35910;BME280;22004;49.120;-0.200;2023-03-21T03:34:58;101268.72;;;10.78;72.83
35910;BME280;22004;49.120;-0.200;2023-03-21T03:37:28;101270.31;;;9.97;73.82
35910;BME280;22004;49.120;-0.200;2023-03-21T03:40:02;101281.84;;;10.73;73.53
35910;BME280;22004;49.120;-0.200;2023-03-21T03:42:48;101266.22;;;10.84;72.92
35910;BME280;22004;49.120;-0.200;2023-03-21T03:45:15;101270.44;;;9.88;72.90
35910;BME280;22004;49.120;-0.200;2023-03-21T03:47:49;101269.56;;;10.54;73.07
35910;BME280;22004;49.120;-0.200;2023-03-21T03:52:49;101253.81;;;10.75;73.55
35910;BME280;22004;49.120;-0.200;2023-03-21T03:55:18;101251.97;;;10.51;74.25
35910;BME280;22004;49.120;-0.200;2023-03-21T03:57:45;101262.19;;;10.48;74.17
35910;BME280;22004;49.120;-0.200;2023-03-21T04:00:12;101235.34;;;10.72;73.22
35910;BME280;22004;49.120;-0.200;2023-03-21T04:02:39;101249.97;;;10.61;73.94
35910;BME280;22004;49.120;-0.200;2023-03-21T04:05:05;101255.50;;;10.52;73.02
35910;BME280;22004;49.120;-0.200;2023-03-21T04:07:30;101254.28;;;10.87;72.57
35910;BME280;22004;49.120;-0.200;2023-03-21T04:09:56;101250.47;;;10.24;72.95
35910;BME280;22004;49.120;-0.200;2023-03-21T04:12:22;101239.44;;;9.85;75.58
35910;BME280;22004;49.120;-0.200;2023-03-21T04:14:48;101244.19;;;10.16;75.20
35910;BME280;22004;49.120;-0.200;2023-03-21T04:17:14;101247.19;;;10.13;74.38
35910;BME280;22004;49.120;-0.200;2023-03-21T04:19:40;101246.28;;;9.79;75.18
35910;BME280;22004;49.120;-0.200;2023-03-21T04:22:05;101239.47;;;10.01;74.26
35910;BME280;22004;49.120;-0.200;2023-03-21T04:24:31;101231.63;;;9.57;74.93
35910;BME280;22004;49.120;-0.200;2023-03-21T04:27:00;101223.50;;;9.75;75.89
35910;BME280;22004;49.120;-0.200;2023-03-21T04:29:26;101224.88;;;10.04;75.79
35910;BME280;22004;49.120;-0.200;2023-03-21T04:31:53;101222.88;;;9.98;75.01
35910;BME280;22004;49.120;-0.200;2023-03-21T04:34:19;101216.03;;;9.53;74.90
35910;BME280;22004;49.120;-0.200;2023-03-21T04:36:48;101215.59;;;9.74;74.98
35910;BME280;22004;49.120;-0.200;2023-03-21T04:39:15;101217.03;;;10.19;74.63
35910;BME280;22004;49.120;-0.200;2023-03-21T04:41:42;101229.00;;;10.24;73.83
35910;BME280;22004;49.120;-0.200;2023-03-21T04:44:08;101243.69;;;10.12;74.18
35910;BME280;22004;49.120;-0.200;2023-03-21T04:46:34;101249.63;;;9.73;75.55
35910;BME280;22004;49.120;-0.200;2023-03-21T04:49:00;101245.44;;;9.79;75.10
35910;BME280;22004;49.120;-0.200;2023-03-21T04:51:26;101239.66;;;10.00;74.70
35910;BME280;22004;49.120;-0.200;2023-03-21T04:53:51;101226.53;;;9.80;75.09
35910;BME280;22004;49.120;-0.200;2023-03-21T04:56:22;101234.13;;;10.01;75.78
35910;BME280;22004;49.120;-0.200;2023-03-21T04:58:54;101227.09;;;10.17;75.50
35910;BME280;22004;49.120;-0.200;2023-03-21T05:01:20;101220.94;;;10.65;74.09
35910;BME280;22004;49.120;-0.200;2023-03-21T05:03:45;101218.53;;;10.05;74.82
35910;BME280;22004;49.120;-0.200;2023-03-21T05:06:10;101211.88;;;10.25;74.14
35910;BME280;22004;49.120;-0.200;2023-03-21T05:08:36;101191.88;;;10.20;75.29
35910;BME280;22004;49.120;-0.200;2023-03-21T05:11:02;101206.44;;;9.84;75.67
35910;BME280;22004;49.120;-0.200;2023-03-21T05:13:28;101204.25;;;9.96;76.33
35910;BME280;22004;49.120;-0.200;2023-03-21T05:15:53;101208.78;;;9.96;74.92
35910;BME280;22004;49.120;-0.200;2023-03-21T05:18:18;101198.28;;;10.27;75.57
35910;BME280;22004;49.120;-0.200;2023-03-21T05:20:49;101190.38;;;10.33;74.77
35910;BME280;22004;49.120;-0.200;2023-03-21T05:23:18;101192.03;;;10.18;74.13
35910;BME280;22004;49.120;-0.200;2023-03-21T05:25:44;101176.94;;;10.17;75.19
35910;BME280;22004;49.120;-0.200;2023-03-21T05:28:09;101171.44;;;10.51;75.04
35910;BME280;22004;49.120;-0.200;2023-03-21T05:30:34;101176.16;;;10.49;74.98
35910;BME280;22004;49.120;-0.200;2023-03-21T05:33:00;101191.69;;;10.86;73.49
35910;BME280;22004;49.120;-0.200;2023-03-21T05:35:25;101192.75;;;10.61;74.50
35910;BME280;22004;49.120;-0.200;2023-03-21T05:37:51;101188.34;;;10.76;74.28
35910;BME280;22004;49.120;-0.200;2023-03-21T05:40:17;101188.06;;;10.55;74.69
35910;BME280;22004;49.120;-0.200;2023-03-21T05:42:44;101202.97;;;10.66;74.48
35910;BME280;22004;49.120;-0.200;2023-03-21T05:45:11;101201.75;;;10.84;73.97
35910;BME280;22004;49.120;-0.200;2023-03-21T05:47:36;101190.66;;;10.87;73.72
35910;BME280;22004;49.120;-0.200;2023-03-21T05:50:02;101208.75;;;11.02;73.83
35910;BME280;22004;49.120;-0.200;2023-03-21T05:52:27;101219.56;;;10.28;76.33
35910;BME280;22004;49.120;-0.200;2023-03-21T05:54:53;101196.94;;;10.47;76.10
35910;BME280;22004;49.120;-0.200;2023-03-21T05:57:19;101177.22;;;10.87;74.47
35910;BME280;22004;49.120;-0.200;2023-03-21T05:59:44;101155.75;;;10.87;74.56
35910;BME280;22004;49.120;-0.200;2023-03-21T06:02:10;101164.63;;;10.88;74.16
35910;BME280;22004;49.120;-0.200;2023-03-21T06:04:36;101175.09;;;10.75;74.79
35910;BME280;22004;49.120;-0.200;2023-03-21T06:07:01;101182.09;;;10.92;74.35
35910;BME280;22004;49.120;-0.200;2023-03-21T06:09:27;101180.41;;;10.91;74.73
35910;BME280;22004;49.120;-0.200;2023-03-21T06:11:54;101176.25;;;10.80;75.19
35910;BME280;22004;49.120;-0.200;2023-03-21T06:14:21;101171.53;;;10.91;74.57
35910;BME280;22004;49.120;-0.200;2023-03-21T06:16:46;101167.03;;;10.75;75.13
35910;BME280;22004;49.120;-0.200;2023-03-21T06:19:12;101165.59;;;11.03;73.90
35910;BME280;22004;49.120;-0.200;2023-03-21T06:21:37;101170.28;;;10.46;76.07
35910;BME280;22004;49.120;-0.200;2023-03-21T06:24:03;101178.63;;;10.67;75.63
35910;BME280;22004;49.120;-0.200;2023-03-21T06:26:29;101167.13;;;11.06;73.94
35910;BME280;22004;49.120;-0.200;2023-03-21T06:28:54;101172.09;;;10.53;76.00
35910;BME280;22004;49.120;-0.200;2023-03-21T06:31:20;101160.72;;;11.07;74.17
35910;BME280;22004;49.120;-0.200;2023-03-21T06:33:49;101168.66;;;10.92;74.41
35910;BME280;22004;49.120;-0.200;2023-03-21T06:36:16;101165.84;;;10.85;74.87
35910;BME280;22004;49.120;-0.200;2023-03-21T06:38:41;101159.72;;;10.44;76.78
35910;BME280;22004;49.120;-0.200;2023-03-21T06:41:07;101172.25;;;10.11;77.85
35910;BME280;22004;49.120;-0.200;2023-03-21T06:43:33;101170.78;;;10.25;77.41
35910;BME280;22004;49.120;-0.200;2023-03-21T06:45:59;101172.09;;;10.70;75.63
35910;BME280;22004;49.120;-0.200;2023-03-21T06:48:26;101169.22;;;10.63;76.18
35910;BME280;22004;49.120;-0.200;2023-03-21T06:50:52;101178.13;;;10.72;75.82
35910;BME280;22004;49.120;-0.200;2023-03-21T06:53:19;101164.50;;;10.90;74.85
35910;BME280;22004;49.120;-0.200;2023-03-21T06:55:49;101170.94;;;11.20;73.96
35910;BME280;22004;49.120;-0.200;2023-03-21T06:58:14;101168.66;;;10.92;74.96
35910;BME280;22004;49.120;-0.200;2023-03-21T07:00:40;101170.53;;;10.83;75.59
35910;BME280;22004;49.120;-0.200;2023-03-21T07:03:06;101179.81;;;10.24;78.68
35910;BME280;22004;49.120;-0.200;2023-03-21T07:05:31;101177.09;;;10.73;76.44
35910;BME280;22004;49.120;-0.200;2023-03-21T07:07:56;101180.03;;;11.10;75.02
35910;BME280;22004;49.120;-0.200;2023-03-21T07:10:22;101180.13;;;11.25;74.80
35910;BME280;22004;49.120;-0.200;2023-03-21T07:12:47;101168.66;;;11.00;76.30
35910;BME280;22004;49.120;-0.200;2023-03-21T07:15:12;101177.41;;;10.94;76.41
35910;BME280;22004;49.120;-0.200;2023-03-21T07:17:38;101173.31;;;11.06;75.56
35910;BME280;22004;49.120;-0.200;2023-03-21T07:20:03;101164.75;;;11.11;75.91
35910;BME280;22004;49.120;-0.200;2023-03-21T07:22:32;101167.56;;;10.62;77.54
35910;BME280;22004;49.120;-0.200;2023-03-21T07:24:58;101180.81;;;10.39;79.24
35910;BME280;22004;49.120;-0.200;2023-03-21T07:27:23;101175.50;;;11.03;76.65
35910;BME280;22004;49.120;-0.200;2023-03-21T07:29:48;101178.63;;;11.23;75.75
35910;BME280;22004;49.120;-0.200;2023-03-21T07:32:14;101185.19;;;11.20;76.17
35910;BME280;22004;49.120;-0.200;2023-03-21T07:34:40;101187.72;;;11.53;75.58
35910;BME280;22004;49.120;-0.200;2023-03-21T07:37:06;101180.88;;;11.03;77.57
35910;BME280;22004;49.120;-0.200;2023-03-21T07:39:31;101191.66;;;11.42;74.78
35910;BME280;22004;49.120;-0.200;2023-03-21T07:41:58;101190.47;;;11.05;77.01
35910;BME280;22004;49.120;-0.200;2023-03-21T07:44:23;101210.66;;;10.69;78.99
35910;BME280;22004;49.120;-0.200;2023-03-21T07:46:49;101204.47;;;10.44;79.38
35910;BME280;22004;49.120;-0.200;2023-03-21T07:49:14;101201.81;;;10.60;78.74
35910;BME280;22004;49.120;-0.200;2023-03-21T07:51:40;101211.19;;;10.56;79.01
35910;BME280;22004;49.120;-0.200;2023-03-21T07:54:05;101212.31;;;16.87;59.33
35910;BME280;22004;49.120;-0.200;2023-03-21T07:56:30;101198.50;;;15.47;63.37
35910;BME280;22004;49.120;-0.200;2023-03-21T07:58:56;101196.50;;;13.94;68.16
35910;BME280;22004;49.120;-0.200;2023-03-21T08:01:23;101195.59;;;13.36;69.65
35910;BME280;22004;49.120;-0.200;2023-03-21T08:03:48;101190.78;;;13.83;67.96
35910;BME280;22004;49.120;-0.200;2023-03-21T08:06:15;101189.97;;;14.04;67.79
35910;BME280;22004;49.120;-0.200;2023-03-21T08:08:40;101189.47;;;13.13;70.49
35910;BME280;22004;49.120;-0.200;2023-03-21T08:11:06;101189.88;;;12.72;71.58
35910;BME280;22004;49.120;-0.200;2023-03-21T08:13:32;101189.25;;;13.95;70.78
35910;BME280;22004;49.120;-0.200;2023-03-21T08:15:57;101190.44;;;12.67;72.89
35910;BME280;22004;49.120;-0.200;2023-03-21T08:18:23;101195.59;;;12.16;75.39
35910;BME280;22004;49.120;-0.200;2023-03-21T08:20:55;101195.19;;;12.05;76.44
35910;BME280;22004;49.120;-0.200;2023-03-21T08:23:21;101199.91;;;12.49;75.30
35910;BME280;22004;49.120;-0.200;2023-03-21T08:25:52;101200.94;;;12.25;76.07
35910;BME280;22004;49.120;-0.200;2023-03-21T08:28:18;101206.59;;;11.84;78.00
35910;BME280;22004;49.120;-0.200;2023-03-21T08:30:44;101199.81;;;13.24;73.85
35910;BME280;22004;49.120;-0.200;2023-03-21T08:33:09;101199.22;;;12.47;75.21
35910;BME280;22004;49.120;-0.200;2023-03-21T08:35:35;101200.78;;;12.41;76.06
35910;BME280;22004;49.120;-0.200;2023-03-21T08:38:02;101207.94;;;12.34;75.95
35910;BME280;22004;49.120;-0.200;2023-03-21T08:40:28;101200.69;;;11.80;77.50
35910;BME280;22004;49.120;-0.200;2023-03-21T08:42:53;101210.63;;;12.11;76.46
35910;BME280;22004;49.120;-0.200;2023-03-21T08:45:18;101211.31;;;13.18;74.18
35910;BME280;22004;49.120;-0.200;2023-03-21T08:47:45;101215.13;;;12.94;74.13
35910;BME280;22004;49.120;-0.200;2023-03-21T08:50:13;101224.63;;;12.67;74.67
35910;BME280;22004;49.120;-0.200;2023-03-21T08:52:40;101227.38;;;12.44;76.35
35910;BME280;22004;49.120;-0.200;2023-03-21T08:55:05;101229.81;;;12.31;75.99
35910;BME280;22004;49.120;-0.200;2023-03-21T08:57:31;101228.97;;;12.07;77.03
35910;BME280;22004;49.120;-0.200;2023-03-21T08:59:56;101235.50;;;12.13;76.68
35910;BME280;22004;49.120;-0.200;2023-03-21T09:02:21;101233.41;;;12.00;77.58
35910;BME280;22004;49.120;-0.200;2023-03-21T09:04:47;101238.59;;;12.02;76.60
35910;BME280;22004;49.120;-0.200;2023-03-21T09:07:12;101236.22;;;12.07;77.38
35910;BME280;22004;49.120;-0.200;2023-03-21T09:09:39;101248.47;;;12.32;77.01
35910;BME280;22004;49.120;-0.200;2023-03-21T09:12:05;101237.09;;;12.22;76.98
35910;BME280;22004;49.120;-0.200;2023-03-21T09:14:31;101237.47;;;12.42;76.88
35910;BME280;22004;49.120;-0.200;2023-03-21T09:16:57;101235.59;;;12.65;75.85
35910;BME280;22004;49.120;-0.200;2023-03-21T09:19:22;101245.56;;;12.80;75.52
35910;BME280;22004;49.120;-0.200;2023-03-21T09:21:48;101243.72;;;12.80;76.26
35910;BME280;22004;49.120;-0.200;2023-03-21T09:24:14;101239.84;;;12.60;74.93
35910;BME280;22004;49.120;-0.200;2023-03-21T09:26:39;101241.56;;;12.53;76.38
35910;BME280;22004;49.120;-0.200;2023-03-21T09:29:05;101249.16;;;12.34;76.71
35910;BME280;22004;49.120;-0.200;2023-03-21T09:31:31;101244.06;;;12.39;77.45
35910;BME280;22004;49.120;-0.200;2023-03-21T09:33:57;101239.31;;;12.41;76.68
35910;BME280;22004;49.120;-0.200;2023-03-21T09:36:25;101238.94;;;12.67;75.55
35910;BME280;22004;49.120;-0.200;2023-03-21T09:38:52;101228.69;;;13.01;75.89
35910;BME280;22004;49.120;-0.200;2023-03-21T09:47:05;101233.50;;;12.53;76.62
35910;BME280;22004;49.120;-0.200;2023-03-21T09:49:39;101230.06;;;12.97;74.96
35910;BME280;22004;49.120;-0.200;2023-03-21T09:52:20;101225.38;;;13.28;75.66
35910;BME280;22004;49.120;-0.200;2023-03-21T09:54:47;101225.63;;;13.18;75.74
35910;BME280;22004;49.120;-0.200;2023-03-21T09:57:40;101220.41;;;13.17;74.45
35910;BME280;22004;49.120;-0.200;2023-03-21T10:00:14;101225.94;;;13.24;75.77
35910;BME280;22004;49.120;-0.200;2023-03-21T10:02:50;101218.94;;;13.14;75.81
35910;BME280;22004;49.120;-0.200;2023-03-21T10:05:23;101216.06;;;13.31;72.79
35910;BME280;22004;49.120;-0.200;2023-03-21T10:08:00;101214.47;;;13.51;74.95
35910;BME280;22004;49.120;-0.200;2023-03-21T10:10:33;101211.28;;;13.62;73.28
35910;BME280;22004;49.120;-0.200;2023-03-21T10:13:00;101209.25;;;13.64;73.75
35910;BME280;22004;49.120;-0.200;2023-03-21T10:15:26;101202.09;;;13.93;74.39
35910;BME280;22004;49.120;-0.200;2023-03-21T10:18:02;101198.78;;;13.76;73.48
35910;BME280;22004;49.120;-0.200;2023-03-21T10:20:36;101208.69;;;13.69;73.51
35910;BME280;22004;49.120;-0.200;2023-03-21T10:23:07;101212.69;;;13.58;73.87
35910;BME280;22004;49.120;-0.200;2023-03-21T10:25:43;101205.94;;;13.48;73.14
35910;BME280;22004;49.120;-0.200;2023-03-21T10:28:17;101199.97;;;13.37;74.09
35910;BME280;22004;49.120;-0.200;2023-03-21T10:30:45;101212.88;;;13.42;73.22
35910;BME280;22004;49.120;-0.200;2023-03-21T10:33:15;101208.50;;;13.11;73.25
35910;BME280;22004;49.120;-0.200;2023-03-21T10:35:46;101211.47;;;13.16;73.55
35910;BME280;22004;49.120;-0.200;2023-03-21T10:38:16;101222.41;;;13.38;73.75
35910;BME280;22004;49.120;-0.200;2023-03-21T10:40:42;101221.72;;;13.51;72.79
35910;BME280;22004;49.120;-0.200;2023-03-21T10:45:51;101213.41;;;13.67;72.55
35910;BME280;22004;49.120;-0.200;2023-03-21T10:48:17;101217.94;;;13.81;71.49
35910;BME280;22004;49.120;-0.200;2023-03-21T10:50:48;101216.28;;;13.80;71.64
35910;BME280;22004;49.120;-0.200;2023-03-21T10:53:21;101216.28;;;14.02;72.49
35910;BME280;22004;49.120;-0.200;2023-03-21T10:55:51;101219.22;;;14.92;68.72
35910;BME280;22004;49.120;-0.200;2023-03-21T10:58:21;101211.59;;;14.74;69.15
35910;BME280;22004;49.120;-0.200;2023-03-21T11:00:56;101207.50;;;15.13;69.48
35910;BME280;22004;49.120;-0.200;2023-03-21T11:04:04;101204.66;;;14.44;69.46
35910;BME280;22004;49.120;-0.200;2023-03-21T11:06:31;101210.34;;;14.28;70.38
35910;BME280;22004;49.120;-0.200;2023-03-21T11:11:27;101198.94;;;13.89;70.82
35910;BME280;22004;49.120;-0.200;2023-03-21T11:13:59;101200.09;;;13.80;71.26
35910;BME280;22004;49.120;-0.200;2023-03-21T11:16:31;101200.84;;;13.74;71.12
35910;BME280;22004;49.120;-0.200;2023-03-21T11:19:10;101191.41;;;13.85;71.19
35910;BME280;22004;49.120;-0.200;2023-03-21T11:21:35;101194.06;;;14.00;70.34
35910;BME280;22004;49.120;-0.200;2023-03-21T11:24:02;101190.78;;;14.26;71.01
35910;BME280;22004;49.120;-0.200;2023-03-21T11:26:35;101186.41;;;14.67;70.44
35910;BME280;22004;49.120;-0.200;2023-03-21T11:29:26;101188.06;;;14.26;70.54
35910;BME280;22004;49.120;-0.200;2023-03-21T11:32:00;101177.09;;;14.27;70.25
35910;BME280;22004;49.120;-0.200;2023-03-21T11:34:32;101178.06;;;14.19;68.87
35910;BME280;22004;49.120;-0.200;2023-03-21T11:37:02;101172.69;;;14.26;70.43
35910;BME280;22004;49.120;-0.200;2023-03-21T11:39:37;101180.75;;;13.98;70.06
35910;BME280;22004;49.120;-0.200;2023-03-21T11:42:24;101180.63;;;13.49;70.84
35910;BME280;22004;49.120;-0.200;2023-03-21T11:44:57;101197.00;;;13.32;74.37
35910;BME280;22004;49.120;-0.200;2023-03-21T11:47:24;101203.22;;;12.88;76.04
35910;BME280;22004;49.120;-0.200;2023-03-21T11:49:51;101203.94;;;12.82;77.09
35910;BME280;22004;49.120;-0.200;2023-03-21T11:52:40;101202.94;;;12.83;78.98
35910;BME280;22004;49.120;-0.200;2023-03-21T11:55:37;101205.97;;;12.80;79.75
35910;BME280;22004;49.120;-0.200;2023-03-21T12:03:47;101190.47;;;12.82;82.56
35910;BME280;22004;49.120;-0.200;2023-03-21T12:06:32;101176.44;;;13.16;82.09
35910;BME280;22004;49.120;-0.200;2023-03-21T12:09:51;101177.19;;;13.40;80.70
35910;BME280;22004;49.120;-0.200;2023-03-21T12:12:08;101190.28;;;13.58;78.47
35910;BME280;22004;49.120;-0.200;2023-03-21T12:17:35;101183.78;;;13.37;80.62
35910;BME280;22004;49.120;-0.200;2023-03-21T12:23:18;101173.75;;;14.04;78.95
35910;BME280;22004;49.120;-0.200;2023-03-21T12:26:05;101158.38;;;14.26;77.54
35910;BME280;22004;49.120;-0.200;2023-03-21T12:36:50;101142.00;;;14.55;76.57
35910;BME280;22004;49.120;-0.200;2023-03-21T12:39:35;101143.84;;;14.48;73.75
35910;BME280;22004;49.120;-0.200;2023-03-21T12:45:26;101143.78;;;14.20;74.29
35910;BME280;22004;49.120;-0.200;2023-03-21T12:48:02;101148.44;;;14.05;72.43
35910;BME280;22004;49.120;-0.200;2023-03-21T12:50:30;101141.81;;;13.86;72.98
35910;BME280;22004;49.120;-0.200;2023-03-21T12:53:23;101142.09;;;14.40;72.74
35910;BME280;22004;49.120;-0.200;2023-03-21T12:55:52;101158.00;;;13.86;70.90
35910;BME280;22004;49.120;-0.200;2023-03-21T12:58:23;101160.00;;;13.99;71.49
35910;BME280;22004;49.120;-0.200;2023-03-21T13:00:53;101148.38;;;14.76;71.49
35910;BME280;22004;49.120;-0.200;2023-03-21T13:06:01;101140.38;;;14.89;68.36
35910;BME280;22004;49.120;-0.200;2023-03-21T13:08:35;101140.81;;;14.92;68.02
35910;BME280;22004;49.120;-0.200;2023-03-21T13:11:06;101143.84;;;14.05;68.32
35910;BME280;22004;49.120;-0.200;2023-03-21T13:13:45;101136.59;;;13.63;68.84
35910;BME280;22004;49.120;-0.200;2023-03-21T13:16:46;101136.00;;;14.53;65.27
35910;BME280;22004;49.120;-0.200;2023-03-21T13:21:43;101130.97;;;14.85;64.05
35910;BME280;22004;49.120;-0.200;2023-03-21T13:24:24;101124.88;;;14.20;66.14
35910;BME280;22004;49.120;-0.200;2023-03-21T13:29:28;101118.53;;;14.28;64.78
35910;BME280;22004;49.120;-0.200;2023-03-21T13:32:05;101105.16;;;14.76;65.08
35910;BME280;22004;49.120;-0.200;2023-03-21T13:34:31;101105.19;;;14.82;63.49
35910;BME280;22004;49.120;-0.200;2023-03-21T13:36:57;101096.41;;;15.15;62.19
35910;BME280;22004;49.120;-0.200;2023-03-21T13:39:27;101097.31;;;14.87;62.08
35910;BME280;22004;49.120;-0.200;2023-03-21T13:41:53;101085.47;;;14.88;61.46
35910;BME280;22004;49.120;-0.200;2023-03-21T13:44:42;101093.78;;;15.41;60.68
35910;BME280;22004;49.120;-0.200;2023-03-21T13:47:58;101086.16;;;14.97;61.78
35910;BME280;22004;49.120;-0.200;2023-03-21T13:50:26;101091.59;;;15.78;58.58
35910;BME280;22004;49.120;-0.200;2023-03-21T13:53:19;101081.19;;;15.95;58.00
35910;BME280;22004;49.120;-0.200;2023-03-21T13:55:56;101079.78;;;15.24;60.54
35910;BME280;22004;49.120;-0.200;2023-03-21T13:58:36;101086.41;;;14.39;63.17
35910;BME280;22004;49.120;-0.200;2023-03-21T14:01:24;101097.72;;;14.84;62.81